createdAt,value
2019-05-23T00:01:53.067Z,100541.55
2019-05-23T00:03:33.378Z,100544.84
2019-05-23T00:05:26.927Z,100543.81
2019-05-23T00:07:02.613Z,100549.13
2019-05-23T00:08:38.441Z,100546.38
2019-05-23T00:10:20.051Z,100543.01
2019-05-23T00:12:22.482Z,100552.11
2019-05-23T00:14:05.630Z,100557.17
2019-05-23T00:15:42.917Z,100555.37
2019-05-23T00:17:19.066Z,100558.13
2019-05-23T00:18:54.256Z,100553.56
2019-05-23T00:20:29.631Z,100552.92
2019-05-23T00:22:06.310Z,100548.19
2019-05-23T00:23:40.746Z,100551.33
2019-05-23T00:25:16.749Z,100552.55
2019-05-23T00:26:52.950Z,100547.43
2019-05-23T00:28:28.208Z,100551.77
2019-05-23T00:30:04.569Z,100543.17
2019-05-23T00:31:47.631Z,100549.95
2019-05-23T00:33:25.934Z,100551.38
2019-05-23T00:35:02.138Z,100552.89
2019-05-23T00:36:38.646Z,100549.27
2019-05-23T00:38:14.589Z,100550.84
2019-05-23T00:39:49.622Z,100552.41
2019-05-23T00:41:25.434Z,100555.49
2019-05-23T00:43:00.425Z,100558.70
2019-05-23T00:44:36.856Z,100559.42
2019-05-23T00:46:12.737Z,100565.17
2019-05-23T00:47:47.841Z,100561.80
2019-05-23T00:49:25.251Z,100565.81
2019-05-23T00:51:04.887Z,100569.36
2019-05-23T00:52:39.058Z,100567.88
2019-05-23T00:54:14.677Z,100566.39
2019-05-23T00:55:49.906Z,100567.69
2019-05-23T00:57:24.854Z,100572.17
2019-05-23T00:59:00.372Z,100574.59
2019-05-23T01:00:36.926Z,100571.69
2019-05-23T01:02:13.054Z,100574.25
2019-05-23T01:03:48.854Z,100577.08
2019-05-23T01:05:25.045Z,100575.75
2019-05-23T01:06:59.578Z,100583.15
2019-05-23T01:08:35.792Z,100583.98
2019-05-23T01:10:11.291Z,100579.31
2019-05-23T01:11:47.283Z,100579.43
2019-05-23T01:13:23.383Z,100580.41
2019-05-23T01:14:58.849Z,100590.31
2019-05-23T01:16:34.050Z,100581.84
2019-05-23T01:18:11.174Z,100586.87
2019-05-23T01:19:46.267Z,100586.45
2019-05-23T01:21:30.673Z,100582.49
2019-05-23T01:23:07.555Z,100581.95
2019-05-23T01:24:44.032Z,100579.33
2019-05-23T01:26:19.389Z,100577.70
2019-05-23T01:27:54.317Z,100575.83
2019-05-23T01:29:37.659Z,100579.01
2019-05-23T01:31:11.409Z,100582.35
2019-05-23T01:32:48.509Z,100577.06
2019-05-23T01:34:24.899Z,100576.56
2019-05-23T01:36:00.023Z,100576.56
2019-05-23T01:37:34.661Z,100578.88
2019-05-23T01:39:12.342Z,100577.58
2019-05-23T01:40:47.326Z,100580.64
2019-05-23T01:42:22.970Z,100577.33
2019-05-23T01:43:58.795Z,100578.59
2019-05-23T01:45:34.957Z,100580.42
2019-05-23T01:47:10.403Z,100573.36
2019-05-23T01:48:45.563Z,100572.27
2019-05-23T01:50:25.721Z,100571.42
2019-05-23T01:52:02.212Z,100575.28
2019-05-23T01:53:37.413Z,100578.41
2019-05-23T01:55:13.528Z,100582.81
2019-05-23T01:56:49.297Z,100573.72
2019-05-23T01:58:24.581Z,100574.82
2019-05-23T02:00:09.943Z,100584.69
2019-05-23T02:01:37.571Z,100582.90
2019-05-23T02:03:12.940Z,100587.13
2019-05-23T02:04:49.143Z,100579.75
2019-05-23T02:06:24.334Z,100581.56
2019-05-23T02:07:59.490Z,100583.02
2019-05-23T02:09:34.585Z,100580.97
2019-05-23T02:11:10.651Z,100584.70
2019-05-23T02:12:45.217Z,100581.33
2019-05-23T02:14:21.976Z,100584.12
2019-05-23T02:15:56.986Z,100581.64
2019-05-23T02:17:33.343Z,100583.10
2019-05-23T02:19:08.541Z,100587.39
2019-05-23T02:20:44.695Z,100581.03
2019-05-23T02:22:19.172Z,100579.85
2019-05-23T02:23:55.262Z,100573.20
2019-05-23T02:25:30.467Z,100580.44
2019-05-23T02:27:06.004Z,100575.00
2019-05-23T02:28:41.529Z,100574.02
2019-05-23T02:30:33.144Z,100576.81
2019-05-23T02:31:55.105Z,100579.47
2019-05-23T02:33:30.907Z,100579.98
2019-05-23T02:35:08.455Z,100578.44
2019-05-23T02:36:48.772Z,100579.44
2019-05-23T02:38:35.102Z,100578.55
2019-05-23T02:40:27.538Z,100578.04
2019-05-23T02:42:11.816Z,100578.83
2019-05-23T02:43:51.601Z,100584.33
2019-05-23T02:45:33.909Z,100588.13
2019-05-23T02:47:27.784Z,100581.89
2019-05-23T02:49:05.186Z,100586.52
2019-05-23T02:50:50.477Z,100584.03
2019-05-23T02:52:41.334Z,100590.61
2019-05-23T02:54:18.435Z,100591.05
2019-05-23T02:55:57.924Z,100581.06
2019-05-23T02:57:34.285Z,100587.33
2019-05-23T02:59:15.535Z,100584.95
2019-05-23T03:01:03.629Z,100586.06
2019-05-23T03:02:56.450Z,100590.52
2019-05-23T03:04:31.856Z,100593.11
2019-05-23T03:06:12.703Z,100583.89
2019-05-23T03:07:48.025Z,100590.78
2019-05-23T03:09:26.906Z,100587.05
2019-05-23T03:11:12.539Z,100593.55
2019-05-23T03:12:50.373Z,100593.53
2019-05-23T03:14:26.377Z,100590.58
2019-05-23T03:16:02.589Z,100588.12
2019-05-23T03:17:42.993Z,100598.28
2019-05-23T03:19:37.307Z,100590.25
2019-05-23T03:21:14.195Z,100595.05
2019-05-23T03:23:12.359Z,100592.02
2019-05-23T03:24:48.783Z,100589.15
2019-05-23T03:27:01.323Z,100590.51
2019-05-23T03:28:43.238Z,100590.80
2019-05-23T03:30:24.597Z,100584.91
2019-05-23T03:32:11.638Z,100586.02
2019-05-23T03:33:47.819Z,100586.28
2019-05-23T03:35:38.550Z,100581.52
2019-05-23T03:37:15.840Z,100583.72
2019-05-23T03:38:51.193Z,100580.63
2019-05-23T03:40:26.456Z,100580.08
2019-05-23T03:42:01.153Z,100583.71
2019-05-23T03:43:37.082Z,100583.00
2019-05-23T03:45:15.033Z,100587.55
2019-05-23T03:46:52.596Z,100582.28
2019-05-23T03:48:28.164Z,100583.97
2019-05-23T03:50:03.267Z,100585.23
2019-05-23T03:51:37.874Z,100583.99
2019-05-23T03:53:13.481Z,100580.87
2019-05-23T03:54:49.763Z,100583.17
2019-05-23T03:56:25.485Z,100577.42
2019-05-23T03:58:00.949Z,100577.91
2019-05-23T03:59:36.284Z,100582.58
2019-05-23T04:01:12.698Z,100583.20
2019-05-23T04:02:49.523Z,100579.98
2019-05-23T04:04:24.228Z,100584.78
2019-05-23T04:05:59.357Z,100582.47
2019-05-23T04:07:33.931Z,100579.38
2019-05-23T04:09:10.370Z,100584.73
2019-05-23T04:10:45.850Z,100581.72
2019-05-23T04:12:20.869Z,100588.12
2019-05-23T04:13:55.551Z,100582.98
2019-05-23T04:15:31.187Z,100581.22
2019-05-23T04:17:06.510Z,100585.14
2019-05-23T04:18:42.032Z,100587.36
2019-05-23T04:20:17.038Z,100591.32
2019-05-23T04:21:52.695Z,100589.15
2019-05-23T04:23:27.083Z,100590.66
2019-05-23T04:25:02.737Z,100590.75
2019-05-23T04:26:37.399Z,100592.07
2019-05-23T04:28:13.321Z,100587.88
2019-05-23T04:29:48.043Z,100592.63
2019-05-23T04:31:23.480Z,100595.69
2019-05-23T04:32:58.284Z,100596.22
2019-05-23T04:34:33.597Z,100599.39
2019-05-23T04:36:08.967Z,100597.51
2019-05-23T04:37:44.030Z,100605.09
2019-05-23T04:39:19.441Z,100601.82
2019-05-23T04:40:54.499Z,100610.72
2019-05-23T04:42:29.363Z,100613.44
2019-05-23T04:44:05.136Z,100617.95
2019-05-23T04:45:40.087Z,100620.37
2019-05-23T04:47:15.662Z,100610.97
2019-05-23T04:48:51.983Z,100612.19
2019-05-23T04:50:28.510Z,100618.28
2019-05-23T04:52:03.422Z,100616.25
2019-05-23T04:53:38.947Z,100619.38
2019-05-23T04:55:15.590Z,100621.06
2019-05-23T04:56:50.541Z,100620.94
2019-05-23T04:58:26.095Z,100626.62
2019-05-23T05:00:01.470Z,100620.22
2019-05-23T05:01:37.315Z,100623.37
2019-05-23T05:03:17.342Z,100628.91
2019-05-23T05:04:49.541Z,100624.92
2019-05-23T05:06:25.687Z,100624.73
2019-05-23T05:08:00.441Z,100626.66
2019-05-23T05:09:35.934Z,100627.90
2019-05-23T05:11:10.888Z,100630.06
2019-05-23T05:12:46.143Z,100633.36
2019-05-23T05:14:21.114Z,100625.68
2019-05-23T05:15:56.824Z,100629.17
2019-05-23T05:17:32.417Z,100632.17
2019-05-23T05:19:08.184Z,100632.22
2019-05-23T05:20:42.733Z,100638.22
2019-05-23T05:22:18.221Z,100630.94
2019-05-23T05:23:53.634Z,100631.05
2019-05-23T05:25:30.209Z,100641.05
2019-05-23T05:27:07.037Z,100640.09
2019-05-23T05:28:42.693Z,100633.24
2019-05-23T05:30:18.374Z,100629.53
2019-05-23T05:31:54.277Z,100639.98
2019-05-23T05:33:29.666Z,100638.61
2019-05-23T05:35:04.855Z,100636.81
2019-05-23T05:36:39.728Z,100631.37
2019-05-23T05:38:16.226Z,100638.42
2019-05-23T05:39:51.169Z,100636.70
2019-05-23T05:41:26.908Z,100643.73
2019-05-23T05:43:02.239Z,100642.94
2019-05-23T05:44:38.135Z,100647.23
2019-05-23T05:46:12.687Z,100642.92
2019-05-23T05:47:48.006Z,100645.48
2019-05-23T05:49:22.898Z,100650.18
2019-05-23T05:51:02.406Z,100645.03
2019-05-23T05:52:37.878Z,100642.42
2019-05-23T05:54:12.901Z,100642.76
2019-05-23T05:55:47.638Z,100638.84
2019-05-23T05:57:23.274Z,100639.77
2019-05-23T05:58:58.122Z,100640.91
2019-05-23T06:00:54.827Z,100636.95
2019-05-23T06:02:29.518Z,100635.61
2019-05-23T06:04:04.980Z,100635.50
2019-05-23T06:05:48.289Z,100636.52
2019-05-23T06:07:30.338Z,100633.95
2019-05-23T06:09:16.725Z,100641.94
2019-05-23T06:10:52.095Z,100640.17
2019-05-23T06:12:27.090Z,100648.68
2019-05-23T06:14:02.589Z,100640.47
2019-05-23T06:15:37.554Z,100643.11
2019-05-23T06:17:15.179Z,100643.87
2019-05-23T06:18:49.561Z,100648.37
2019-05-23T06:20:24.863Z,100653.66
2019-05-23T06:22:00.226Z,100647.30
2019-05-23T06:23:35.582Z,100641.89
2019-05-23T06:25:11.847Z,100639.05
2019-05-23T06:26:47.302Z,100640.23
2019-05-23T06:28:21.892Z,100637.83
2019-05-23T06:29:56.908Z,100645.20
2019-05-23T06:31:32.004Z,100648.41
2019-05-23T06:33:21.802Z,100639.80
2019-05-23T06:34:43.431Z,100641.80
2019-05-23T06:36:18.757Z,100647.08
2019-05-23T06:37:53.580Z,100643.30
2019-05-23T06:39:29.029Z,100648.77
2019-05-23T06:41:06.631Z,100648.70
2019-05-23T06:42:42.529Z,100650.73
2019-05-23T06:44:18.921Z,100643.13
2019-05-23T06:45:55.350Z,100645.77
2019-05-23T06:47:31.144Z,100648.69
2019-05-23T06:49:07.124Z,100643.46
2019-05-23T06:50:41.957Z,100638.12
2019-05-23T06:52:18.254Z,100647.98
2019-05-23T06:53:54.377Z,100643.75
2019-05-23T06:55:30.135Z,100648.85
2019-05-23T06:57:05.371Z,100647.98
2019-05-23T06:58:41.830Z,100650.03
2019-05-23T07:00:20.186Z,100652.11
2019-05-23T07:01:56.055Z,100645.52
2019-05-23T07:03:41.175Z,100646.59
2019-05-23T07:05:07.622Z,100641.52
2019-05-23T07:06:42.311Z,100642.16
2019-05-23T07:08:17.724Z,100636.77
2019-05-23T07:09:52.166Z,100640.00
2019-05-23T07:11:27.190Z,100644.83
2019-05-23T07:13:02.178Z,100635.58
2019-05-23T07:14:37.980Z,100633.53
2019-05-23T07:16:12.930Z,100642.98
2019-05-23T07:17:48.155Z,100634.36
2019-05-23T07:19:22.522Z,100642.55
2019-05-23T07:20:58.258Z,100644.19
2019-05-23T07:22:32.937Z,100647.42
2019-05-23T07:24:08.268Z,100649.21
2019-05-23T07:25:42.763Z,100653.79
2019-05-23T07:27:19.295Z,100650.51
2019-05-23T07:28:54.253Z,100657.11
2019-05-23T07:30:29.426Z,100641.00
2019-05-23T07:32:10.050Z,100646.23
2019-05-23T07:34:00.506Z,100648.89
2019-05-23T07:35:22.081Z,100641.23
2019-05-23T07:36:57.542Z,100645.39
2019-05-23T07:38:31.973Z,100644.80
2019-05-23T07:40:07.522Z,100647.45
2019-05-23T07:41:42.248Z,100646.97
2019-05-23T07:43:17.436Z,100657.98
2019-05-23T07:44:53.461Z,100659.19
2019-05-23T07:46:28.562Z,100656.80
2019-05-23T07:48:04.308Z,100655.94
2019-05-23T07:49:39.302Z,100647.72
2019-05-23T07:51:14.205Z,100647.16
2019-05-23T07:52:49.526Z,100646.77
2019-05-23T07:54:29.605Z,100639.89
2019-05-23T07:56:13.384Z,100641.50
2019-05-23T07:57:48.515Z,100635.78
2019-05-23T07:59:23.096Z,100634.16
2019-05-23T08:01:00.677Z,100632.88
2019-05-23T08:02:39.010Z,100634.80
2019-05-23T08:04:21.823Z,100629.12
2019-05-23T08:05:52.175Z,100632.25
2019-05-23T08:07:32.467Z,100634.47
2019-05-23T08:09:07.215Z,100637.22
2019-05-23T08:10:42.167Z,100633.77
2019-05-23T08:12:17.170Z,100633.47
2019-05-23T08:13:52.738Z,100630.64
2019-05-23T08:15:28.181Z,100632.68
2019-05-23T08:17:04.054Z,100628.42
2019-05-23T08:18:38.771Z,100631.38
2019-05-23T08:20:14.208Z,100632.09
2019-05-23T08:21:48.749Z,100629.84
2019-05-23T08:23:23.790Z,100631.63
2019-05-23T08:24:58.223Z,100623.54
2019-05-23T08:26:34.886Z,100611.80
2019-05-23T08:28:09.954Z,100622.16
2019-05-23T08:29:45.885Z,100623.00
2019-05-23T08:31:21.768Z,100617.47
2019-05-23T08:32:56.892Z,100627.21
2019-05-23T08:34:41.558Z,100635.77
2019-05-23T08:36:09.850Z,100624.52
2019-05-23T08:37:44.530Z,100625.98
2019-05-23T08:39:20.647Z,100618.60
2019-05-23T08:40:56.982Z,100618.88
2019-05-23T08:42:33.817Z,100621.09
2019-05-23T08:44:11.415Z,100623.66
2019-05-23T08:45:47.274Z,100617.53
2019-05-23T08:47:23.587Z,100615.88
2019-05-23T08:49:00.841Z,100612.06
2019-05-23T08:50:35.714Z,100604.77
2019-05-23T08:52:11.419Z,100601.19
2019-05-23T08:53:46.655Z,100611.20
2019-05-23T08:55:24.809Z,100616.81
2019-05-23T08:56:59.848Z,100606.55
2019-05-23T08:58:35.504Z,100603.54
2019-05-23T09:00:10.691Z,100604.89
2019-05-23T09:01:47.177Z,100587.13
2019-05-23T09:03:22.492Z,100606.17
2019-05-23T09:05:05.576Z,100599.16
2019-05-23T09:06:35.403Z,100597.41
2019-05-23T09:08:16.519Z,100599.66
2019-05-23T09:09:49.837Z,100602.06
2019-05-23T09:11:26.951Z,100599.42
2019-05-23T09:13:02.535Z,100584.43
2019-05-23T09:14:38.346Z,100602.27
2019-05-23T09:16:13.374Z,100598.84
2019-05-23T09:17:53.894Z,100597.02
2019-05-23T09:19:25.743Z,100592.88
2019-05-23T09:21:01.604Z,100601.98
2019-05-23T09:22:36.953Z,100601.12
2019-05-23T09:24:12.017Z,100588.42
2019-05-23T09:25:47.643Z,100589.68
2019-05-23T09:27:22.723Z,100585.09
2019-05-23T09:28:57.673Z,100593.13
2019-05-23T09:30:33.326Z,100591.77
2019-05-23T09:32:08.788Z,100596.64
2019-05-23T09:33:43.970Z,100591.38
2019-05-23T09:35:21.334Z,100590.84
2019-05-23T09:36:55.289Z,100580.62
2019-05-23T09:38:30.464Z,100583.94
2019-05-23T09:40:07.343Z,100578.63
2019-05-23T09:41:42.801Z,100582.09
2019-05-23T09:43:18.530Z,100580.74
2019-05-23T09:44:53.706Z,100571.47
2019-05-23T09:46:29.556Z,100572.67
2019-05-23T09:48:04.791Z,100572.15
2019-05-23T09:49:40.688Z,100577.02
2019-05-23T09:51:15.912Z,100574.98
2019-05-23T09:52:51.476Z,100570.73
2019-05-23T09:54:27.114Z,100577.58
2019-05-23T09:56:03.216Z,100572.27
2019-05-23T09:57:38.299Z,100578.09
2019-05-23T09:59:14.768Z,100573.80
2019-05-23T10:00:49.658Z,100574.00
2019-05-23T10:02:25.735Z,100572.28
2019-05-23T10:04:00.925Z,100574.67
2019-05-23T10:05:43.197Z,100571.59
2019-05-23T10:07:13.996Z,100573.80
2019-05-23T10:08:49.673Z,100566.63
2019-05-23T10:10:24.606Z,100570.20
2019-05-23T10:12:00.322Z,100573.05
2019-05-23T10:13:39.083Z,100574.77
2019-05-23T10:15:18.877Z,100581.12
2019-05-23T10:16:54.436Z,100578.36
2019-05-23T10:18:29.384Z,100572.02
2019-05-23T10:20:06.082Z,100572.14
2019-05-23T10:21:41.174Z,100564.10
2019-05-23T10:23:16.881Z,100573.64
2019-05-23T10:24:51.990Z,100570.62
2019-05-23T10:26:27.710Z,100571.91
2019-05-23T10:28:02.608Z,100567.89
2019-05-23T10:29:38.215Z,100563.82
2019-05-23T10:31:13.225Z,100561.70
2019-05-23T10:32:49.102Z,100563.87
2019-05-23T10:34:23.991Z,100564.76
2019-05-23T10:36:01.168Z,100569.17
2019-05-23T10:37:36.248Z,100564.44
2019-05-23T10:39:14.608Z,100565.89
2019-05-23T10:40:49.714Z,100556.92
2019-05-23T10:42:28.833Z,100546.27
2019-05-23T10:44:04.007Z,100547.17
2019-05-23T10:45:39.705Z,100546.05
2019-05-23T10:47:14.685Z,100544.11
2019-05-23T10:48:50.690Z,100552.07
2019-05-23T10:50:25.827Z,100545.22
2019-05-23T10:52:01.503Z,100543.23
2019-05-23T10:53:36.269Z,100538.09
2019-05-23T10:55:11.395Z,100539.84
2019-05-23T10:56:46.049Z,100535.47
2019-05-23T10:58:22.253Z,100535.09
2019-05-23T10:59:57.876Z,100537.37
2019-05-23T11:01:33.947Z,100540.42
2019-05-23T11:03:09.329Z,100536.77
2019-05-23T11:04:45.050Z,100538.25
2019-05-23T11:06:20.379Z,100531.64
2019-05-23T11:07:56.014Z,100532.13
2019-05-23T11:09:37.714Z,100527.69
2019-05-23T11:11:13.674Z,100521.28
2019-05-23T11:12:45.741Z,100530.89
2019-05-23T11:14:21.744Z,100539.50
2019-05-23T11:15:56.863Z,100534.42
2019-05-23T11:17:33.123Z,100517.68
2019-05-23T11:19:10.225Z,100520.30
2019-05-23T11:20:46.159Z,100519.55
2019-05-23T11:22:22.301Z,100515.09
2019-05-23T11:23:58.017Z,100517.28
2019-05-23T11:25:33.749Z,100515.77
2019-05-23T11:27:09.426Z,100510.55
2019-05-23T11:28:44.474Z,100504.06
2019-05-23T11:30:27.053Z,100511.74
2019-05-23T11:32:03.700Z,100509.30
2019-05-23T11:33:38.568Z,100510.80
2019-05-23T11:35:14.492Z,100503.69
2019-05-23T11:36:49.270Z,100503.21
2019-05-23T11:38:26.258Z,100500.04
2019-05-23T11:40:01.119Z,100502.20
2019-05-23T11:41:37.350Z,100500.66
2019-05-23T11:43:12.420Z,100500.61
2019-05-23T11:44:47.766Z,100504.42
2019-05-23T11:46:31.588Z,100499.50
2019-05-23T11:48:06.826Z,100505.33
2019-05-23T11:49:42.281Z,100505.49
2019-05-23T11:51:19.594Z,100506.82
2019-05-23T11:52:56.074Z,100495.97
2019-05-23T11:54:32.274Z,100497.83
2019-05-23T11:56:07.558Z,100501.16
2019-05-23T11:57:42.795Z,100494.87
2019-05-23T11:59:17.610Z,100480.25
2019-05-23T12:01:38.912Z,100482.77
2019-05-23T12:03:13.572Z,100490.68
2019-05-23T12:04:48.919Z,100483.48
2019-05-23T12:06:26.370Z,100482.11
2019-05-23T12:08:02.186Z,100471.67
2019-05-23T12:09:36.878Z,100474.69
2019-05-23T12:11:11.919Z,100477.22
2019-05-23T12:12:46.618Z,100481.06
2019-05-23T12:14:21.662Z,100481.69
2019-05-23T12:15:56.479Z,100475.02
2019-05-23T12:17:32.850Z,100483.55
2019-05-23T12:19:08.014Z,100480.97
2019-05-23T12:20:43.637Z,100475.20
2019-05-23T12:22:18.782Z,100468.97
2019-05-23T12:23:54.650Z,100471.02
2019-05-23T12:25:31.107Z,100463.87
2019-05-23T12:27:07.096Z,100461.13
2019-05-23T12:28:42.138Z,100464.45
2019-05-23T12:30:19.801Z,100457.05
2019-05-23T12:31:54.633Z,100462.08
2019-05-23T12:33:29.776Z,100462.02
2019-05-23T12:35:10.934Z,100455.34
2019-05-23T12:36:42.343Z,100461.05
2019-05-23T12:38:17.465Z,100464.19
2019-05-23T12:39:54.896Z,100461.70
2019-05-23T12:41:29.884Z,100451.34
2019-05-23T12:43:05.684Z,100455.30
2019-05-23T12:44:43.825Z,100453.66
2019-05-23T12:46:19.098Z,100450.13
2019-05-23T12:47:58.560Z,100446.47
2019-05-23T12:49:47.792Z,100452.78
2019-05-23T12:51:25.923Z,100449.12
2019-05-23T12:53:00.699Z,100454.27
2019-05-23T12:54:36.100Z,100448.14
2019-05-23T12:56:11.136Z,100440.07
2019-05-23T12:57:46.210Z,100432.36
2019-05-23T12:59:21.480Z,100455.67
2019-05-23T13:00:59.001Z,100447.98
2019-05-23T13:02:34.447Z,100445.45
2019-05-23T13:04:10.671Z,100439.32
2019-05-23T13:05:45.713Z,100443.68
2019-05-23T13:07:35.214Z,100437.66
2019-05-23T13:08:58.181Z,100437.05
2019-05-23T13:10:34.599Z,100434.92
2019-05-23T13:12:09.855Z,100441.05
2019-05-23T13:13:45.422Z,100445.68
2019-05-23T13:15:21.272Z,100442.48
2019-05-23T13:17:00.683Z,100432.59
2019-05-23T13:18:33.514Z,100431.72
2019-05-23T13:20:10.080Z,100426.11
2019-05-23T13:21:45.103Z,100434.92
2019-05-23T13:23:21.586Z,100429.48
2019-05-23T13:24:56.768Z,100428.62
2019-05-23T13:26:32.499Z,100428.47
2019-05-23T13:28:07.354Z,100422.03
2019-05-23T13:29:43.131Z,100417.83
2019-05-23T13:31:18.156Z,100415.92
2019-05-23T13:32:53.785Z,100412.02
2019-05-23T13:34:28.570Z,100414.13
2019-05-23T13:36:04.035Z,100415.09
2019-05-23T13:37:52.157Z,100418.60
2019-05-23T13:39:15.887Z,100414.09
2019-05-23T13:40:50.963Z,100414.95
2019-05-23T13:42:26.268Z,100413.59
2019-05-23T13:44:01.368Z,100411.61
2019-05-23T13:45:37.667Z,100414.39
2019-05-23T13:47:12.234Z,100405.24
2019-05-23T13:48:47.411Z,100416.95
2019-05-23T13:50:21.939Z,100404.74
2019-05-23T13:51:56.991Z,100404.62
2019-05-23T13:53:31.341Z,100405.80
2019-05-23T13:55:06.431Z,100401.17
2019-05-23T13:56:41.944Z,100401.67
2019-05-23T13:58:17.128Z,100400.38
2019-05-23T13:59:51.578Z,100399.22
2019-05-23T14:01:26.944Z,100394.03
2019-05-23T14:03:01.914Z,100399.37
2019-05-23T14:04:36.998Z,100397.53
2019-05-23T14:06:12.497Z,100389.42
2019-05-23T14:07:47.722Z,100389.62
2019-05-23T14:09:23.755Z,100386.60
2019-05-23T14:10:58.741Z,100386.56
2019-05-23T14:12:33.346Z,100387.91
2019-05-23T14:14:09.150Z,100387.03
2019-05-23T14:15:46.462Z,100384.34
2019-05-23T14:17:26.036Z,100386.42
2019-05-23T14:19:00.409Z,100387.95
2019-05-23T14:20:35.353Z,100378.53
2019-05-23T14:22:10.224Z,100374.45
2019-05-23T14:23:45.264Z,100383.07
2019-05-23T14:25:20.370Z,100378.15
2019-05-23T14:27:01.462Z,100376.27
2019-05-23T14:28:36.767Z,100379.98
2019-05-23T14:30:29.809Z,100380.08
2019-05-23T14:32:22.504Z,100377.77
2019-05-23T14:34:02.891Z,100375.89
2019-05-23T14:35:37.638Z,100377.02
2019-05-23T14:37:17.642Z,100380.68
2019-05-23T14:38:54.318Z,100379.11
2019-05-23T14:40:29.471Z,100388.38
2019-05-23T14:42:13.992Z,100386.00
2019-05-23T14:43:49.509Z,100388.83
2019-05-23T14:45:43.531Z,100391.57
2019-05-23T14:47:45.282Z,100386.29
2019-05-23T14:49:24.898Z,100388.19
2019-05-23T14:51:17.232Z,100391.38
2019-05-23T14:52:53.462Z,100390.34
2019-05-23T14:54:33.215Z,100387.54
2019-05-23T14:56:09.260Z,100390.74
2019-05-23T14:57:43.795Z,100386.91
2019-05-23T14:59:19.642Z,100389.11
2019-05-23T15:00:55.848Z,100387.82
2019-05-23T15:02:31.203Z,100385.03
2019-05-23T15:04:06.274Z,100378.84
2019-05-23T15:05:41.459Z,100379.84
2019-05-23T15:07:16.814Z,100383.53
2019-05-23T15:08:52.456Z,100378.31
2019-05-23T15:10:28.812Z,100379.40
2019-05-23T15:12:05.777Z,100380.89
2019-05-23T15:13:40.816Z,100381.17
2019-05-23T15:15:16.977Z,100383.27
2019-05-23T15:16:51.970Z,100379.48
2019-05-23T15:18:28.095Z,100379.05
2019-05-23T15:20:03.070Z,100379.13
2019-05-23T15:21:37.894Z,100384.70
2019-05-23T15:23:12.518Z,100380.52
2019-05-23T15:24:47.585Z,100377.09
2019-05-23T15:26:23.970Z,100386.09
2019-05-23T15:27:59.109Z,100390.68
2019-05-23T15:29:33.897Z,100386.86
2019-05-23T15:31:09.078Z,100387.67
2019-05-23T15:32:44.007Z,100382.50
2019-05-23T15:34:18.930Z,100383.30
2019-05-23T15:35:54.481Z,100382.12
2019-05-23T15:37:29.839Z,100384.71
2019-05-23T15:39:10.006Z,100381.94
2019-05-23T15:40:43.697Z,100378.34
2019-05-23T15:42:18.253Z,100381.34
2019-05-23T15:43:53.398Z,100378.77
2019-05-23T15:45:29.266Z,100377.20
2019-05-23T15:47:04.423Z,100372.83
2019-05-23T15:48:40.319Z,100374.27
2019-05-23T15:50:16.835Z,100375.11
2019-05-23T15:52:01.419Z,100371.38
2019-05-23T15:53:44.411Z,100372.41
2019-05-23T15:55:36.612Z,100377.17
2019-05-23T15:57:16.786Z,100378.04
2019-05-23T15:58:59.366Z,100376.89
2019-05-23T16:01:02.325Z,100377.56
2019-05-23T16:02:43.270Z,100375.17
2019-05-23T16:04:20.232Z,100379.86
2019-05-23T16:05:55.157Z,100376.02
2019-05-23T16:07:31.187Z,100373.83
2019-05-23T16:09:25.607Z,100375.52
2019-05-23T16:10:46.419Z,100376.59
2019-05-23T16:12:20.906Z,100371.17
2019-05-23T16:13:56.278Z,100372.06
2019-05-23T16:15:30.738Z,100376.14
2019-05-23T16:17:08.295Z,100371.81
2019-05-23T16:18:42.819Z,100380.08
2019-05-23T16:20:18.157Z,100376.60
2019-05-23T16:21:52.591Z,100382.61
2019-05-23T16:23:28.175Z,100381.66
2019-05-23T16:25:02.851Z,100380.13
2019-05-23T16:26:38.817Z,100380.44
2019-05-23T16:28:13.286Z,100379.05
2019-05-23T16:29:48.647Z,100379.75
2019-05-23T16:31:23.204Z,100377.35
2019-05-23T16:32:58.244Z,100371.52
2019-05-23T16:34:33.069Z,100369.77
2019-05-23T16:36:08.694Z,100378.08
2019-05-23T16:37:43.528Z,100368.19
2019-05-23T16:39:19.405Z,100376.64
2019-05-23T16:40:54.031Z,100375.84
2019-05-23T16:42:29.731Z,100375.48
2019-05-23T16:44:04.270Z,100376.67
2019-05-23T16:45:39.695Z,100376.91
2019-05-23T16:47:14.130Z,100381.17
2019-05-23T16:48:49.440Z,100379.92
2019-05-23T16:50:23.807Z,100381.36
2019-05-23T16:51:59.187Z,100383.80
2019-05-23T16:53:35.918Z,100382.06
2019-05-23T16:55:18.075Z,100380.89
2019-05-23T16:57:11.259Z,100382.17
2019-05-23T16:58:55.969Z,100381.20
2019-05-23T17:00:48.492Z,100383.14
2019-05-23T17:02:38.936Z,100383.51
2019-05-23T17:04:41.668Z,100378.12
2019-05-23T17:06:31.191Z,100379.53
2019-05-23T17:08:23.192Z,100379.77
2019-05-23T17:10:09.688Z,100379.63
2019-05-23T17:11:53.706Z,100380.95
2019-05-23T17:13:50.610Z,100382.83
2019-05-23T17:15:45.938Z,100377.38
2019-05-23T17:17:59.923Z,100373.83
2019-05-23T17:19:28.849Z,100377.19
2019-05-23T17:21:25.864Z,100378.39
2019-05-23T17:23:19.778Z,100374.55
2019-05-23T17:25:13.303Z,100378.13
2019-05-23T17:27:09.888Z,100381.00
2019-05-23T17:28:47.449Z,100388.02
2019-05-23T17:30:33.415Z,100384.50
2019-05-23T17:32:10.798Z,100386.97
2019-05-23T17:33:45.504Z,100382.42
2019-05-23T17:35:20.530Z,100382.98
2019-05-23T17:36:55.595Z,100378.36
2019-05-23T17:38:30.897Z,100377.43
2019-05-23T17:40:05.902Z,100380.91
2019-05-23T17:41:41.932Z,100385.65
2019-05-23T17:43:16.490Z,100383.13
2019-05-23T17:45:28.635Z,100377.41
2019-05-23T17:47:04.781Z,100380.70
2019-05-23T17:48:39.176Z,100381.02
2019-05-23T17:50:14.533Z,100382.14
2019-05-23T17:51:49.467Z,100382.63
2019-05-23T17:53:24.778Z,100383.78
2019-05-23T17:55:10.266Z,100383.16
2019-05-23T17:56:45.602Z,100380.09
2019-05-23T17:58:41.141Z,100382.75
2019-05-23T18:00:23.933Z,100379.78
2019-05-23T18:01:58.957Z,100384.62
2019-05-23T18:03:33.978Z,100382.47
2019-05-23T18:05:09.667Z,100387.02
2019-05-23T18:06:44.703Z,100382.28
2019-05-23T18:08:19.993Z,100383.94
2019-05-23T18:10:17.114Z,100384.47
2019-05-23T18:11:55.364Z,100385.00
2019-05-23T18:13:29.167Z,100376.86
2019-05-23T18:15:04.781Z,100385.80
2019-05-23T18:16:39.934Z,100380.08
2019-05-23T18:18:15.397Z,100387.56
2019-05-23T18:19:50.378Z,100383.67
2019-05-23T18:21:26.060Z,100384.41
2019-05-23T18:23:00.511Z,100390.34
2019-05-23T18:24:35.806Z,100392.16
2019-05-23T18:26:10.265Z,100388.20
2019-05-23T18:27:46.185Z,100396.15
2019-05-23T18:29:20.691Z,100392.72
2019-05-23T18:31:08.570Z,100394.83